Time;durP1;ratioP1;P1;durP2;ratioP2;P2;SDS_P1;SDS_P2;PMS_P1;PMS_P2;Temp;Humidity;BMP_temperature;BMP_pressure;BME280_temperature;BME280_humidity;BME280_pressure;Samples;Min_cycle;Max_cycle;Signal;HPM_P1;HPM_P2
2023/01/04 00:01:17;;;;;;;17.63;8.47;;;;;;;;;;5036383;28;20201;-55
2023/01/04 00:03:44;;;;;;;16.83;8.00;;;;;;;;;;5035272;28;20274;-56
2023/01/04 00:06:14;;;;;;;14.53;7.47;;;;;;;;;;5036275;28;20196;-56
2023/01/04 00:08:41;;;;;;;20.13;7.47;;;;;;;;;;5035667;28;20637;-55
2023/01/04 00:11:14;;;;;;;12.77;5.90;;;;;;;;;;5035714;28;20267;-55
2023/01/04 00:13:42;;;;;;;12.83;5.63;;;;;;;;;;5035917;28;20201;-56
2023/01/04 00:16:14;;;;;;;13.97;5.50;;;;;;;;;;5035755;28;20278;-56
2023/01/04 00:18:42;;;;;;;19.53;8.70;;;;;;;;;;5035611;28;20282;-58
2023/01/04 00:21:14;;;;;;;14.70;6.87;;;;;;;;;;5035754;28;20267;-60
2023/01/04 00:23:43;;;;;;;29.87;13.00;;;;;;;;;;5035718;28;20325;-55
2023/01/04 00:26:16;;;;;;;27.97;17.87;;;;;;;;;;5035364;28;20299;-56
2023/01/04 00:28:43;;;;;;;12.40;5.10;;;;;;;;;;5035388;28;20207;-58
2023/01/04 00:31:20;;;;;;;11.53;5.10;;;;;;;;;;5034575;28;20212;-58
2023/01/04 00:33:47;;;;;;;10.87;4.83;;;;;;;;;;5035186;28;20201;-56
2023/01/04 00:36:14;;;;;;;13.03;5.33;;;;;;;;;;5035246;28;20650;-57
2023/01/04 00:38:42;;;;;;;10.40;5.00;;;;;;;;;;5035185;28;20574;-57
2023/01/04 00:41:10;;;;;;;14.03;5.87;;;;;;;;;;5035107;28;20282;-56
2023/01/04 00:43:58;;;;;;;17.30;5.60;;;;;;;;;;5035439;28;20204;-53
2023/01/04 00:46:25;;;;;;;16.00;5.93;;;;;;;;;;5035001;28;20204;-55
2023/01/04 00:48:53;;;;;;;15.50;6.27;;;;;;;;;;5034707;28;20605;-55
2023/01/04 00:51:26;;;;;;;13.13;5.57;;;;;;;;;;5034960;28;20214;-56
2023/01/04 00:53:54;;;;;;;18.23;7.60;;;;;;;;;;5035015;28;20204;-56
2023/01/04 00:56:22;;;;;;;19.13;7.97;;;;;;;;;;5034809;28;20201;-56
2023/01/04 00:58:53;;;;;;;18.83;8.30;;;;;;;;;;5034626;28;20228;-59
2023/01/04 01:01:20;;;;;;;20.83;6.97;;;;;;;;;;5035086;28;20223;-58
2023/01/04 01:03:52;;;;;;;18.20;7.30;;;;;;;;;;5034985;28;20205;-56
2023/01/04 01:06:19;;;;;;;22.20;11.57;;;;;;;;;;5034670;28;20203;-59
2023/01/04 01:08:46;;;;;;;14.73;8.40;;;;;;;;;;5034958;28;20286;-54
2023/01/04 01:11:13;;;;;;;21.87;8.70;;;;;;;;;;5034529;28;20641;-55
2023/01/04 01:13:41;;;;;;;15.77;8.20;;;;;;;;;;5034457;28;20212;-55
2023/01/04 01:16:13;;;;;;;20.17;8.47;;;;;;;;;;5034822;28;20201;-54
2023/01/04 01:18:42;;;;;;;18.67;6.43;;;;;;;;;;5034495;28;20237;-56
2023/01/04 01:21:14;;;;;;;18.83;6.77;;;;;;;;;;5034356;28;20575;-59
2023/01/04 01:23:42;;;;;;;23.47;7.97;;;;;;;;;;5034602;28;20189;-59
2023/01/04 01:26:12;;;;;;;35.07;17.57;;;;;;;;;;5034544;28;20286;-59
2023/01/04 01:28:39;;;;;;;21.00;8.77;;;;;;;;;;5034689;28;20212;-58
2023/01/04 01:31:18;;;;;;;15.10;7.20;;;;;;;;;;5034444;28;20204;-56
2023/01/04 01:33:46;;;;;;;14.00;5.53;;;;;;;;;;5034443;28;20215;-56
2023/01/04 01:36:15;;;;;;;23.10;7.40;;;;;;;;;;5034414;28;20590;-55
2023/01/04 01:38:42;;;;;;;30.33;9.73;;;;;;;;;;5034340;28;20240;-56
2023/01/04 01:41:24;;;;;;;29.40;10.77;;;;;;;;;;5033841;28;20204;-55
2023/01/04 01:43:59;;;;;;;23.20;8.73;;;;;;;;;;5034383;28;20196;-55
2023/01/04 01:46:48;;;;;;;53.13;31.83;;;;;;;;;;5034180;28;20211;-57
2023/01/04 01:49:21;;;;;;;35.40;17.33;;;;;;;;;;5034218;28;20216;-57
2023/01/04 01:51:48;;;;;;;18.60;8.40;;;;;;;;;;5034241;28;20216;-56
2023/01/04 01:54:20;;;;;;;17.87;7.07;;;;;;;;;;5034065;28;20278;-57
2023/01/04 01:56:48;;;;;;;19.20;7.40;;;;;;;;;;5034284;28;20229;-55
2023/01/04 01:59:17;;;;;;;20.27;8.17;;;;;;;;;;5033843;28;20233;-55
2023/01/04 02:01:44;;;;;;;24.00;8.43;;;;;;;;;;5033461;28;20213;-52
2023/01/04 02:04:13;;;;;;;14.83;6.70;;;;;;;;;;5034058;28;20258;-52
2023/01/04 02:06:49;;;;;;;18.03;6.97;;;;;;;;;;5032868;28;20196;-55
2023/01/04 02:09:17;;;;;;;20.20;9.40;;;;;;;;;;5033050;28;20215;-57
2023/01/04 02:11:44;;;;;;;16.67;7.43;;;;;;;;;;5032943;28;20204;-54
2023/01/04 02:14:28;;;;;;;22.63;7.57;;;;;;;;;;5033975;28;20201;-54
2023/01/04 02:17:04;;;;;;;17.77;7.90;;;;;;;;;;5033708;28;20204;-55
2023/01/04 02:20:23;;;;;;;17.17;7.30;;;;;;;;;;5033148;28;20189;-56
2023/01/04 02:23:17;;;;;;;19.77;7.17;;;;;;;;;;5032627;28;20204;-55
2023/01/04 02:26:12;;;;;;;22.13;8.43;;;;;;;;;;5033769;28;20227;-57
2023/01/04 02:29:07;;;;;;;22.90;11.83;;;;;;;;;;5033613;28;20201;-58
2023/01/04 02:31:44;;;;;;;17.40;7.53;;;;;;;;;;5033643;28;20649;-57
2023/01/04 02:34:33;;;;;;;13.27;7.20;;;;;;;;;;5032809;28;20207;-58
2023/01/04 02:37:17;;;;;;;17.73;7.47;;;;;;;;;;5033564;28;20228;-57
2023/01/04 02:39:52;;;;;;;17.10;7.03;;;;;;;;;;5032706;28;20528;-57
2023/01/04 02:45:54;;;;;;;15.63;7.60;;;;;;;;;;5033671;28;20205;-57
2023/01/04 02:51:29;;;;;;;15.50;7.63;;;;;;;;;;5033504;28;20200;-59
2023/01/04 02:53:59;;;;;;;19.77;7.47;;;;;;;;;;5033659;28;20216;-55
2023/01/04 02:57:11;;;;;;;19.37;8.70;;;;;;;;;;5033562;28;20201;-56
2023/01/04 02:59:56;;;;;;;17.40;6.93;;;;;;;;;;5033287;28;20200;-54
2023/01/04 03:08:36;;;;;;;19.77;10.07;;;;;;;;;;5032725;28;20255;-56
2023/01/04 03:14:17;;;;;;;21.13;8.90;;;;;;;;;;5035399;28;20209;-54
2023/01/04 03:17:03;;;;;;;20.10;8.13;;;;;;;;;;5036171;28;20207;-58
2023/01/04 03:36:56;;;;;;;28.27;10.57;;;;;;;;;;5036636;28;20209;-55
2023/01/04 03:48:48;;;;;;;14.67;7.50;;;;;;;;;;5014621;28;20642;-54
2023/01/04 03:51:20;;;;;;;31.07;13.43;;;;;;;;;;4998519;28;20216;-59
2023/01/04 03:54:07;;;;;;;28.67;13.23;;;;;;;;;;5014543;28;20202;-55
2023/01/04 03:56:37;;;;;;;21.50;9.53;;;;;;;;;;5014591;28;20212;-54
2023/01/04 03:59:04;;;;;;;34.73;10.77;;;;;;;;;;4998138;28;20231;-56
2023/01/04 04:01:31;;;;;;;20.70;8.70;;;;;;;;;;5014374;28;20201;-58
2023/01/04 04:09:30;;;;;;;20.90;8.53;;;;;;;;;;5014306;28;20239;-54
2023/01/04 04:11:58;;;;;;;53.53;19.83;;;;;;;;;;5014231;28;20205;-56
2023/01/04 04:14:25;;;;;;;22.23;10.57;;;;;;;;;;5033672;28;20208;-55
2023/01/04 04:16:52;;;;;;;24.80;10.10;;;;;;;;;;5035846;28;20212;-53
2023/01/04 04:19:19;;;;;;;24.73;9.83;;;;;;;;;;5035563;28;20707;-56
2023/01/04 04:21:47;;;;;;;26.90;10.47;;;;;;;;;;5035866;28;20208;-56
2023/01/04 04:24:20;;;;;;;23.67;10.53;;;;;;;;;;5034838;28;20216;-54
2023/01/04 04:26:47;;;;;;;27.70;9.23;;;;;;;;;;5035766;28;20220;-54
2023/01/04 04:29:14;;;;;;;17.57;8.20;;;;;;;;;;5035328;28;20641;-53
2023/01/04 04:31:42;;;;;;;45.57;22.70;;;;;;;;;;5034072;28;20204;-54
2023/01/04 04:34:09;;;;;;;26.53;16.90;;;;;;;;;;5034807;28;20238;-58
2023/01/04 04:36:37;;;;;;;16.50;9.30;;;;;;;;;;5035162;28;20209;-57
2023/01/04 04:39:04;;;;;;;22.03;8.87;;;;;;;;;;5033509;28;20673;-56
2023/01/04 04:41:38;;;;;;;23.63;9.73;;;;;;;;;;5035031;28;20661;-56
2023/01/04 04:44:10;;;;;;;20.00;8.53;;;;;;;;;;5035661;28;20280;-57
2023/01/04 04:46:37;;;;;;;19.53;8.83;;;;;;;;;;5035418;28;20196;-58
2023/01/04 04:49:05;;;;;;;15.87;8.40;;;;;;;;;;5035137;28;20212;-54
2023/01/04 04:51:33;;;;;;;20.27;8.90;;;;;;;;;;5035075;28;20512;-57
2023/01/04 04:54:00;;;;;;;31.43;15.40;;;;;;;;;;5034951;28;20204;-58
2023/01/04 04:56:28;;;;;;;36.03;15.17;;;;;;;;;;5034118;28;20201;-55
2023/01/04 04:58:55;;;;;;;28.80;11.20;;;;;;;;;;5034508;28;20224;-54
2023/01/04 05:01:22;;;;;;;17.40;8.83;;;;;;;;;;5035061;28;20200;-56
2023/01/04 05:03:50;;;;;;;51.77;28.13;;;;;;;;;;5030519;28;20209;-55
2023/01/04 05:06:17;;;;;;;30.20;17.13;;;;;;;;;;5030625;28;20224;-54
2023/01/04 05:08:44;;;;;;;37.93;20.57;;;;;;;;;;5031942;28;20223;-54
2023/01/04 05:11:12;;;;;;;29.30;20.17;;;;;;;;;;5032968;28;20550;-57
2023/01/04 05:13:39;;;;;;;66.63;39.43;;;;;;;;;;5033709;28;20221;-53
2023/01/04 05:16:07;;;;;;;74.87;44.90;;;;;;;;;;5034149;28;20531;-55
2023/01/04 05:18:35;;;;;;;53.40;22.27;;;;;;;;;;5033462;28;20283;-56
2023/01/04 05:21:02;;;;;;;29.37;13.80;;;;;;;;;;5033685;28;20294;-56
2023/01/04 05:23:29;;;;;;;25.27;13.53;;;;;;;;;;5033872;28;20224;-56
2023/01/04 05:25:59;;;;;;;22.37;12.43;;;;;;;;;;5033652;28;20229;-56
2023/01/04 05:28:26;;;;;;;23.23;11.13;;;;;;;;;;5033403;28;20243;-55
2023/01/04 05:30:54;;;;;;;24.53;12.17;;;;;;;;;;5032052;28;20217;-55
2023/01/04 05:33:24;;;;;;;19.20;9.63;;;;;;;;;;5033444;28;20228;-56
2023/01/04 05:35:53;;;;;;;34.57;16.80;;;;;;;;;;5032801;28;20676;-59
2023/01/04 05:38:20;;;;;;;42.83;18.07;;;;;;;;;;5033286;28;20255;-54
2023/01/04 05:40:48;;;;;;;37.20;19.00;;;;;;;;;;5033677;28;20231;-59
2023/01/04 05:43:16;;;;;;;37.03;13.27;;;;;;;;;;5033484;28;20358;-58
2023/01/04 05:45:47;;;;;;;21.40;9.73;;;;;;;;;;5032844;28;20224;-57
2023/01/04 05:48:15;;;;;;;83.93;42.33;;;;;;;;;;5033278;28;20240;-60
2023/01/04 05:50:44;;;;;;;25.80;13.80;;;;;;;;;;5031817;28;20566;-59
2023/01/04 05:53:13;;;;;;;19.77;9.87;;;;;;;;;;5032651;28;20311;-59
2023/01/04 05:55:40;;;;;;;30.50;13.07;;;;;;;;;;5032363;28;20239;-59
2023/01/04 05:58:07;;;;;;;30.70;14.50;;;;;;;;;;5031974;28;20231;-61
2023/01/04 06:00:34;;;;;;;37.50;16.60;;;;;;;;;;5032119;28;20224;-56
2023/01/04 06:03:01;;;;;;;38.63;20.13;;;;;;;;;;5032706;28;20227;-58
2023/01/04 06:05:29;;;;;;;25.33;14.03;;;;;;;;;;5032395;28;20235;-60
2023/01/04 06:07:56;;;;;;;23.93;12.10;;;;;;;;;;5032698;28;20311;-59
2023/01/04 06:10:23;;;;;;;31.07;15.93;;;;;;;;;;5032874;28;20239;-61
2023/01/04 06:12:50;;;;;;;49.73;21.00;;;;;;;;;;5032821;28;20233;-62
2023/01/04 06:15:18;;;;;;;34.27;15.33;;;;;;;;;;5032787;28;20243;-57
2023/01/04 06:17:45;;;;;;;33.37;15.93;;;;;;;;;;5032932;28;20291;-58
2023/01/04 06:20:12;;;;;;;32.53;19.10;;;;;;;;;;5048091;28;20252;-61
2023/01/04 06:22:40;;;;;;;52.77;22.40;;;;;;;;;;5032885;28;20233;-62
2023/01/04 06:25:08;;;;;;;29.27;15.00;;;;;;;;;;5032847;28;20610;-60
2023/01/04 06:27:35;;;;;;;35.50;17.10;;;;;;;;;;5032627;28;20220;-61
2023/01/04 06:30:04;;;;;;;32.40;14.50;;;;;;;;;;5032760;28;20239;-60
2023/01/04 06:32:31;;;;;;;27.73;14.43;;;;;;;;;;5032479;28;20582;-53
2023/01/04 06:34:58;;;;;;;31.53;18.40;;;;;;;;;;5032922;28;20211;-56
2023/01/04 06:37:25;;;;;;;29.30;15.27;;;;;;;;;;5032238;28;20208;-58
2023/01/04 06:39:53;;;;;;;29.53;15.03;;;;;;;;;;5032936;28;20229;-56
2023/01/04 06:45:06;;;;;;;37.03;17.80;;;;;;;;;;5033502;28;20209;-58
2023/01/04 06:47:33;;;;;;;33.90;17.07;;;;;;;;;;5033528;28;20207;-53
2023/01/04 06:50:00;;;;;;;35.60;15.57;;;;;;;;;;5037400;28;20212;-59
2023/01/04 06:52:27;;;;;;;36.97;16.13;;;;;;;;;;5037612;28;20219;-52
2023/01/04 06:54:55;;;;;;;38.47;17.20;;;;;;;;;;5036985;28;20201;-53
2023/01/04 06:57:22;;;;;;;84.27;45.70;;;;;;;;;;5035502;28;20204;-55
2023/01/04 06:59:50;;;;;;;45.97;23.47;;;;;;;;;;5036065;28;20259;-55
2023/01/04 07:02:17;;;;;;;82.67;32.37;;;;;;;;;;5035666;28;20204;-55
2023/01/04 07:04:44;;;;;;;181.17;59.17;;;;;;;;;;5036859;28;20201;-53
2023/01/04 07:07:11;;;;;;;56.70;25.10;;;;;;;;;;5018839;28;20639;-52
2023/01/04 07:09:39;;;;;;;363.20;126.97;;;;;;;;;;5035896;28;20208;-53
2023/01/04 07:12:06;;;;;;;242.53;106.13;;;;;;;;;;5037066;28;20304;-59
2023/01/04 07:14:33;;;;;;;236.90;78.13;;;;;;;;;;5036142;28;20262;-52
2023/01/04 07:17:00;;;;;;;163.60;61.93;;;;;;;;;;5036861;28;20205;-56
2023/01/04 07:19:27;;;;;;;203.07;74.27;;;;;;;;;;5036725;28;20228;-56
2023/01/04 07:21:54;;;;;;;165.73;59.57;;;;;;;;;;5036772;28;20207;-55
2023/01/04 07:24:22;;;;;;;85.13;35.63;;;;;;;;;;5036558;28;20696;-56
2023/01/04 07:27:01;;;;;;;51.57;27.27;;;;;;;;;;5036847;28;20201;-57
2023/01/04 07:29:28;;;;;;;94.03;50.60;;;;;;;;;;5036554;28;20208;-53
2023/01/04 07:31:55;;;;;;;122.10;59.10;;;;;;;;;;5036470;28;20204;-58
2023/01/04 07:34:24;;;;;;;137.97;60.63;;;;;;;;;;5036706;28;20204;-52
2023/01/04 07:36:51;;;;;;;136.97;62.17;;;;;;;;;;5035597;28;20305;-57
2023/01/04 07:39:19;;;;;;;255.97;113.97;;;;;;;;;;5035440;28;20220;-56
2023/01/04 07:41:47;;;;;;;162.30;78.17;;;;;;;;;;5035014;28;20256;-53
2023/01/04 07:44:18;;;;;;;174.53;72.47;;;;;;;;;;5035286;28;20189;-56
2023/01/04 07:46:45;;;;;;;118.67;49.90;;;;;;;;;;5036168;28;20295;-57
2023/01/04 07:49:14;;;;;;;150.87;62.20;;;;;;;;;;5036202;28;20205;-54
2023/01/04 07:51:45;;;;;;;101.50;47.20;;;;;;;;;;5035705;28;20200;-56
2023/01/04 07:54:14;;;;;;;127.37;53.77;;;;;;;;;;5034971;28;20220;-55
2023/01/04 07:56:41;;;;;;;112.50;52.63;;;;;;;;;;5035110;28;20228;-58
2023/01/04 07:59:09;;;;;;;94.20;46.20;;;;;;;;;;5032309;28;20735;-58
2023/01/04 08:01:37;;;;;;;64.93;32.93;;;;;;;;;;5034683;28;20208;-58
2023/01/04 08:04:06;;;;;;;56.10;28.90;;;;;;;;;;5034173;28;20630;-55
2023/01/04 08:06:35;;;;;;;43.20;24.63;;;;;;;;;;5034838;28;20586;-54
2023/01/04 08:09:04;;;;;;;47.20;23.37;;;;;;;;;;5035474;28;20283;-56
2023/01/04 08:11:31;;;;;;;37.23;22.10;;;;;;;;;;5034564;28;20226;-55
2023/01/04 08:13:58;;;;;;;38.47;21.27;;;;;;;;;;5035705;28;20543;-54
2023/01/04 08:16:26;;;;;;;38.83;21.97;;;;;;;;;;5035228;28;20223;-56
2023/01/04 08:18:55;;;;;;;40.70;20.93;;;;;;;;;;5034910;28;20204;-58
2023/01/04 08:21:22;;;;;;;44.83;26.17;;;;;;;;;;5035312;28;20208;-54
2023/01/04 08:23:51;;;;;;;48.77;23.87;;;;;;;;;;5035123;28;20214;-57
2023/01/04 08:26:20;;;;;;;39.67;22.23;;;;;;;;;;5034439;28;20308;-54
2023/01/04 08:28:48;;;;;;;46.63;23.77;;;;;;;;;;5034418;28;20209;-54
2023/01/04 08:31:20;;;;;;;45.83;23.20;;;;;;;;;;5035519;28;20210;-55
2023/01/04 08:33:48;;;;;;;42.37;21.27;;;;;;;;;;5035567;28;20538;-53
2023/01/04 08:36:22;;;;;;;43.73;22.80;;;;;;;;;;5035390;28;20991;-53
2023/01/04 08:38:58;;;;;;;45.70;25.70;;;;;;;;;;5034412;28;20204;-57
2023/01/04 08:41:33;;;;;;;71.73;40.23;;;;;;;;;;5034928;28;20225;-56
2023/01/04 08:44:22;;;;;;;55.53;35.27;;;;;;;;;;5032909;28;20212;-59
2023/01/04 08:46:50;;;;;;;53.70;33.97;;;;;;;;;;5034064;28;20223;-59
2023/01/04 08:49:18;;;;;;;64.13;34.53;;;;;;;;;;5034794;28;20205;-60
2023/01/04 08:51:46;;;;;;;61.90;30.53;;;;;;;;;;5034638;28;20216;-58
2023/01/04 08:54:14;;;;;;;66.97;32.20;;;;;;;;;;5034621;28;20236;-53
2023/01/04 08:56:41;;;;;;;61.97;31.87;;;;;;;;;;5034582;28;20534;-53
2023/01/04 08:59:10;;;;;;;54.73;29.60;;;;;;;;;;5034124;28;20795;-54
2023/01/04 09:01:38;;;;;;;56.60;29.13;;;;;;;;;;5034798;28;20239;-58
2023/01/04 09:04:06;;;;;;;64.07;30.77;;;;;;;;;;5033142;28;20232;-57
2023/01/04 09:06:33;;;;;;;45.77;27.17;;;;;;;;;;5033638;28;20295;-59
2023/01/04 09:09:00;;;;;;;49.87;29.33;;;;;;;;;;5034154;28;20538;-56
2023/01/04 09:11:27;;;;;;;56.73;29.50;;;;;;;;;;5034590;28;20541;-54
2023/01/04 09:13:59;;;;;;;51.33;28.03;;;;;;;;;;5034449;28;20290;-55
2023/01/04 09:16:34;;;;;;;45.70;26.63;;;;;;;;;;5034833;28;20192;-55
2023/01/04 09:19:01;;;;;;;48.57;26.57;;;;;;;;;;5034693;28;20219;-54
2023/01/04 09:21:28;;;;;;;134.57;61.70;;;;;;;;;;5034428;28;20664;-54
2023/01/04 09:23:57;;;;;;;79.53;44.70;;;;;;;;;;5034579;28;20209;-56
2023/01/04 09:26:24;;;;;;;50.03;26.97;;;;;;;;;;5034506;28;20204;-55
2023/01/04 09:28:54;;;;;;;94.10;46.10;;;;;;;;;;5034261;28;20528;-55
2023/01/04 09:31:24;;;;;;;125.23;68.77;;;;;;;;;;5034202;28;20217;-55
2023/01/04 09:33:52;;;;;;;62.47;38.07;;;;;;;;;;5034596;28;20177;-55
2023/01/04 09:36:39;;;;;;;64.93;42.30;;;;;;;;;;5034461;28;20216;-58
2023/01/04 09:39:06;;;;;;;65.67;40.77;;;;;;;;;;5033149;28;20592;-55
2023/01/04 09:41:42;;;;;;;114.07;63.20;;;;;;;;;;5033618;28;20294;-57
2023/01/04 09:44:09;;;;;;;154.27;71.93;;;;;;;;;;5032763;28;20204;-57
2023/01/04 09:46:44;;;;;;;260.63;114.60;;;;;;;;;;5034145;28;20204;-60
2023/01/04 09:49:30;;;;;;;454.33;203.63;;;;;;;;;;5016636;28;20699;-56
2023/01/04 09:52:02;;;;;;;563.60;290.27;;;;;;;;;;5034132;28;20606;-53
2023/01/04 09:54:49;;;;;;;466.80;221.47;;;;;;;;;;5033702;28;20590;-56
2023/01/04 09:57:36;;;;;;;662.33;381.63;;;;;;;;;;5033094;28;20292;-54
2023/01/04 10:00:19;;;;;;;312.73;144.93;;;;;;;;;;5032389;28;20306;-57
2023/01/04 10:03:27;;;;;;;136.40;68.70;;;;;;;;;;5033109;28;20205;-54
2023/01/04 10:05:55;;;;;;;248.40;124.13;;;;;;;;;;4992652;28;20213;-55
2023/01/04 10:08:22;;;;;;;253.93;117.30;;;;;;;;;;4992442;28;20249;-52
2023/01/04 10:11:01;;;;;;;141.40;65.03;;;;;;;;;;4992561;28;20606;-58
2023/01/04 10:13:34;;;;;;;60.20;32.87;;;;;;;;;;4991942;28;20262;-60
2023/01/04 10:16:31;;;;;;;69.40;38.03;;;;;;;;;;4992620;28;20209;-59
2023/01/04 10:19:39;;;;;;;51.30;28.77;;;;;;;;;;4991775;28;20202;-56
2023/01/04 10:22:35;;;;;;;41.30;23.27;;;;;;;;;;4993165;28;20217;-55
2023/01/04 10:25:31;;;;;;;38.57;23.13;;;;;;;;;;4996704;28;20248;-54
2023/01/04 10:28:28;;;;;;;62.43;26.70;;;;;;;;;;4962762;28;20218;-55
2023/01/04 10:31:04;;;;;;;64.30;23.63;;;;;;;;;;4980458;28;20268;-59
2023/01/04 10:34:15;;;;;;;50.23;21.07;;;;;;;;;;4996670;28;20201;-55
2023/01/04 10:36:46;;;;;;;36.50;18.70;;;;;;;;;;4977987;28;20202;-58
2023/01/04 10:39:18;;;;;;;32.53;18.67;;;;;;;;;;4980305;28;20209;-55
2023/01/04 10:41:58;;;;;;;41.37;20.20;;;;;;;;;;4996961;28;20315;-55
2023/01/04 10:44:40;;;;;;;42.20;22.70;;;;;;;;;;5037421;28;20219;-55
2023/01/04 10:47:18;;;;;;;46.13;24.57;;;;;;;;;;5037834;28;20524;-56
2023/01/04 10:49:55;;;;;;;69.10;39.40;;;;;;;;;;5036607;28;20941;-55
2023/01/04 10:52:30;;;;;;;80.33;40.93;;;;;;;;;;5036591;28;20188;-56
2023/01/04 10:55:02;;;;;;;48.30;27.20;;;;;;;;;;5036740;28;20243;-55
2023/01/04 10:57:39;;;;;;;96.03;49.70;;;;;;;;;;5035632;28;20205;-56
2023/01/04 11:00:12;;;;;;;128.03;60.47;;;;;;;;;;5035949;28;20223;-59
2023/01/04 11:02:41;;;;;;;100.17;47.20;;;;;;;;;;5035804;28;20535;-58
2023/01/04 11:05:15;;;;;;;103.43;45.73;;;;;;;;;;5035159;28;20262;-55
2023/01/04 11:07:56;;;;;;;100.23;44.73;;;;;;;;;;5037007;28;20236;-55
2023/01/04 11:10:50;;;;;;;52.37;25.73;;;;;;;;;;5037458;28;20204;-54
2023/01/04 11:13:17;;;;;;;47.00;19.50;;;;;;;;;;5036121;28;20209;-56
2023/01/04 11:15:46;;;;;;;39.13;19.93;;;;;;;;;;5037077;28;20200;-57
2023/01/04 11:18:14;;;;;;;27.20;16.27;;;;;;;;;;5037023;28;20287;-55
2023/01/04 11:20:41;;;;;;;28.30;14.83;;;;;;;;;;5036632;28;20232;-56
2023/01/04 11:23:13;;;;;;;30.27;15.50;;;;;;;;;;5036036;28;20255;-58
2023/01/04 11:25:58;;;;;;;27.27;16.80;;;;;;;;;;5036680;28;20626;-58
2023/01/04 11:28:36;;;;;;;31.33;16.37;;;;;;;;;;5035701;28;20610;-55
2023/01/04 11:31:06;;;;;;;46.93;20.67;;;;;;;;;;5035759;28;20227;-55
2023/01/04 11:34:12;;;;;;;44.23;18.77;;;;;;;;;;5036601;28;20213;-54
2023/01/04 11:36:42;;;;;;;134.00;77.70;;;;;;;;;;4995230;28;20264;-59
2023/01/04 11:39:22;;;;;;;44.80;22.73;;;;;;;;;;4995300;28;20206;-57
2023/01/04 11:42:03;;;;;;;34.23;20.93;;;;;;;;;;4994985;28;20242;-55
2023/01/04 11:44:32;;;;;;;30.97;17.37;;;;;;;;;;4995240;28;20650;-59
2023/01/04 11:47:20;;;;;;;31.77;17.07;;;;;;;;;;4995275;28;20206;-57
2023/01/04 11:49:51;;;;;;;33.60;20.43;;;;;;;;;;4995162;28;20198;-59
2023/01/04 11:52:36;;;;;;;34.80;21.13;;;;;;;;;;4995000;28;20263;-53
2023/01/04 11:55:16;;;;;;;33.37;20.70;;;;;;;;;;4994922;28;20217;-58
2023/01/04 11:57:43;;;;;;;35.90;20.57;;;;;;;;;;4995000;28;20605;-56
2023/01/04 12:00:15;;;;;;;35.73;19.50;;;;;;;;;;4994799;28;20242;-56
2023/01/04 12:02:42;;;;;;;36.87;20.00;;;;;;;;;;4994902;28;20190;-51
2023/01/04 12:05:30;;;;;;;31.20;16.67;;;;;;;;;;4994768;28;20304;-58
2023/01/04 12:07:58;;;;;;;41.40;23.77;;;;;;;;;;5022937;28;20212;-53
2023/01/04 12:10:26;;;;;;;36.50;22.33;;;;;;;;;;5033394;28;20299;-57
2023/01/04 12:12:55;;;;;;;38.37;20.10;;;;;;;;;;5035552;28;20204;-54
2023/01/04 12:15:31;;;;;;;34.40;20.70;;;;;;;;;;5035774;28;20209;-55
2023/01/04 12:18:05;;;;;;;41.93;23.27;;;;;;;;;;5035966;28;20211;-54
2023/01/04 12:20:32;;;;;;;46.73;22.40;;;;;;;;;;5034686;28;20223;-55
2023/01/04 12:22:59;;;;;;;42.70;24.27;;;;;;;;;;5035595;28;20200;-59
2023/01/04 12:25:33;;;;;;;35.37;22.00;;;;;;;;;;5035832;28;20323;-55
2023/01/04 12:28:00;;;;;;;42.60;20.93;;;;;;;;;;5034574;28;20209;-55
2023/01/04 12:30:44;;;;;;;37.10;18.97;;;;;;;;;;5035643;28;20209;-54
2023/01/04 12:33:32;;;;;;;42.27;19.77;;;;;;;;;;5035547;28;20204;-52
2023/01/04 12:36:07;;;;;;;232.17;109.00;;;;;;;;;;5035205;28;20240;-55
2023/01/04 12:38:53;;;;;;;40.33;27.20;;;;;;;;;;5035381;28;20192;-55
2023/01/04 12:41:59;;;;;;;41.37;21.07;;;;;;;;;;5033517;28;20239;-57
2023/01/04 12:44:36;;;;;;;40.30;20.37;;;;;;;;;;5033861;28;20637;-60
2023/01/04 12:50:17;;;;;;;34.33;18.10;;;;;;;;;;5035310;28;20196;-53
2023/01/04 12:52:48;;;;;;;32.77;19.07;;;;;;;;;;5035327;28;20521;-55
2023/01/04 12:55:40;;;;;;;32.80;18.60;;;;;;;;;;5034851;28;20216;-59
2023/01/04 12:58:28;;;;;;;42.83;22.20;;;;;;;;;;5034826;28;20208;-57
2023/01/04 13:01:26;;;;;;;37.87;19.83;;;;;;;;;;5034706;28;20661;-56
2023/01/04 13:04:28;;;;;;;39.53;19.67;;;;;;;;;;5034821;28;20283;-55
2023/01/04 13:07:05;;;;;;;36.97;18.60;;;;;;;;;;5032445;28;20226;-52
2023/01/04 13:09:32;;;;;;;39.00;20.70;;;;;;;;;;5033981;28;20204;-57
2023/01/04 13:12:14;;;;;;;37.50;22.03;;;;;;;;;;5034117;28;20208;-57
2023/01/04 13:14:48;;;;;;;41.07;23.57;;;;;;;;;;5034532;28;20196;-55
2023/01/04 13:17:20;;;;;;;35.80;20.97;;;;;;;;;;5034147;28;20277;-56
2023/01/04 13:19:48;;;;;;;146.63;76.70;;;;;;;;;;5034541;28;20574;-55
2023/01/04 13:22:23;;;;;;;86.43;39.90;;;;;;;;;;5035039;28;20681;-56
2023/01/04 13:24:56;;;;;;;66.43;27.10;;;;;;;;;;5033934;28;20212;-56
2023/01/04 13:27:27;;;;;;;39.50;20.17;;;;;;;;;;5033683;28;20234;-55
2023/01/04 13:29:54;;;;;;;52.97;21.27;;;;;;;;;;5033719;28;20629;-53
2023/01/04 13:32:26;;;;;;;42.10;19.17;;;;;;;;;;5033836;28;20201;-55
2023/01/04 13:35:09;;;;;;;45.27;20.43;;;;;;;;;;5033252;28;20200;-56
2023/01/04 13:37:45;;;;;;;40.40;19.33;;;;;;;;;;5033042;28;20197;-57
2023/01/04 13:40:15;;;;;;;58.03;24.43;;;;;;;;;;5033230;28;20203;-53
2023/01/04 13:42:48;;;;;;;77.13;29.23;;;;;;;;;;5033286;28;20245;-56
2023/01/04 13:45:31;;;;;;;58.10;22.80;;;;;;;;;;5032710;28;20209;-59
2023/01/04 13:48:02;;;;;;;68.80;24.47;;;;;;;;;;5032787;28;20200;-57
2023/01/04 13:50:42;;;;;;;50.87;21.17;;;;;;;;;;5033621;28;20291;-58
2023/01/04 13:53:21;;;;;;;31.47;17.40;;;;;;;;;;5033767;28;20634;-57
2023/01/04 13:55:58;;;;;;;37.50;19.37;;;;;;;;;;5033591;28;20192;-56
2023/01/04 13:58:31;;;;;;;40.97;19.70;;;;;;;;;;5032417;28;20544;-59
2023/01/04 14:01:11;;;;;;;94.57;43.13;;;;;;;;;;5032527;28;20216;-55
2023/01/04 14:03:41;;;;;;;70.77;25.70;;;;;;;;;;5033357;28;20177;-54
2023/01/04 14:06:08;;;;;;;231.00;124.17;;;;;;;;;;5033787;28;20262;-55
2023/01/04 14:08:58;;;;;;;98.63;37.00;;;;;;;;;;5033689;28;20219;-55
2023/01/04 14:14:18;;;;;;;58.53;22.13;;;;;;;;;;5032537;28;20306;-55
2023/01/04 14:16:46;;;;;;;48.63;20.73;;;;;;;;;;5021096;28;20264;-57
2023/01/04 14:19:44;;;;;;;45.53;20.53;;;;;;;;;;5032049;28;20363;-55
2023/01/04 14:22:39;;;;;;;39.87;19.93;;;;;;;;;;5019564;28;20692;-55
2023/01/04 14:25:39;;;;;;;59.70;32.23;;;;;;;;;;5012733;28;20244;-60
2023/01/04 14:28:18;;;;;;;56.60;28.63;;;;;;;;;;5013013;28;20676;-57
2023/01/04 14:30:50;;;;;;;75.17;25.60;;;;;;;;;;5013258;28;20656;-55
2023/01/04 14:33:21;;;;;;;60.70;29.13;;;;;;;;;;5012706;28;20312;-58
2023/01/04 14:36:08;;;;;;;55.90;25.33;;;;;;;;;;5012549;28;20232;-59
2023/01/04 14:39:02;;;;;;;47.10;23.67;;;;;;;;;;5013206;28;20252;-58
2023/01/04 14:41:35;;;;;;;37.77;20.77;;;;;;;;;;5012950;28;20241;-59
2023/01/04 14:44:12;;;;;;;40.30;21.30;;;;;;;;;;5013529;28;20222;-66
2023/01/04 14:46:42;;;;;;;125.27;56.50;;;;;;;;;;5028257;28;20774;-55
2023/01/04 14:49:09;;;;;;;288.47;108.00;;;;;;;;;;5031121;28;20315;-58
2023/01/04 14:51:41;;;;;;;123.87;57.63;;;;;;;;;;5031908;28;20232;-61
2023/01/04 14:54:10;;;;;;;91.67;43.67;;;;;;;;;;5031345;28;20225;-59
2023/01/04 14:56:38;;;;;;;170.57;84.57;;;;;;;;;;5030725;28;20224;-61
2023/01/04 14:59:06;;;;;;;255.40;141.63;;;;;;;;;;5031770;28;20228;-60
2023/01/04 15:01:35;;;;;;;482.50;276.43;;;;;;;;;;5031553;28;20232;-59
2023/01/04 15:04:06;;;;;;;306.27;166.00;;;;;;;;;;5031996;28;20320;-59
2023/01/04 15:06:33;;;;;;;215.27;132.70;;;;;;;;;;5031967;28;20291;-62
2023/01/04 15:09:01;;;;;;;100.47;62.60;;;;;;;;;;5033909;28;20300;-61
2023/01/04 15:11:30;;;;;;;148.77;99.43;;;;;;;;;;5035777;28;20259;-62
2023/01/04 15:13:57;;;;;;;121.47;85.67;;;;;;;;;;5034448;28;20220;-61
2023/01/04 15:16:24;;;;;;;304.63;101.40;;;;;;;;;;5034627;28;20548;-61
2023/01/04 15:18:51;;;;;;;116.50;45.17;;;;;;;;;;5035722;28;20609;-61
2023/01/04 15:21:19;;;;;;;61.50;28.60;;;;;;;;;;5036227;28;20255;-64
2023/01/04 15:23:47;;;;;;;50.03;29.03;;;;;;;;;;5034081;28;20225;-62
2023/01/04 15:26:14;;;;;;;185.27;115.63;;;;;;;;;;5033530;28;20758;-62
2023/01/04 15:28:41;;;;;;;167.70;62.17;;;;;;;;;;5035134;28;20551;-61
2023/01/04 15:31:10;;;;;;;70.50;35.40;;;;;;;;;;5035150;28;20232;-61
2023/01/04 15:33:37;;;;;;;68.43;30.90;;;;;;;;;;5035357;28;20252;-61
2023/01/04 15:36:10;;;;;;;65.07;33.87;;;;;;;;;;5034261;28;20236;-63
2023/01/04 15:38:37;;;;;;;57.43;29.77;;;;;;;;;;5035036;28;20225;-61
2023/01/04 15:42:57;;;;;;;110.20;44.30;;;;;;;;;;5035241;28;20236;-61
2023/01/04 15:44:03;;;;;;;67.20;33.67;;;;;;;;;;5034905;28;20240;-61
2023/01/04 15:46:30;;;;;;;53.67;28.83;;;;;;;;;;5033741;28;20213;-63